createdAt,value
2023-02-13T00:01:28.894Z,76.27
2023-02-13T00:03:57.236Z,76.13
2023-02-13T00:06:25.689Z,75.81
2023-02-13T00:08:54.225Z,76.37
2023-02-13T00:11:22.709Z,76.86
2023-02-13T00:13:50.945Z,76.74
2023-02-13T00:16:20.630Z,77.20
2023-02-13T00:18:48.951Z,77.24
2023-02-13T00:21:17.342Z,77.11
2023-02-13T00:23:45.617Z,77.79
2023-02-13T00:26:17.020Z,77.50
2023-02-13T00:28:46.861Z,76.79
2023-02-13T00:31:17.782Z,77.45
2023-02-13T00:33:47.694Z,77.26
2023-02-13T00:36:19.260Z,77.22
2023-02-13T00:38:48.738Z,76.84
2023-02-13T00:41:18.184Z,76.56
2023-02-13T00:43:47.397Z,76.83
2023-02-13T00:46:16.237Z,77.27
2023-02-13T00:48:45.348Z,77.62
2023-02-13T00:51:15.250Z,77.14
2023-02-13T00:53:43.519Z,77.07
2023-02-13T00:56:11.899Z,76.37
2023-02-13T00:58:40.306Z,76.26
2023-02-13T01:01:08.684Z,75.95
2023-02-13T01:03:37.005Z,75.71
2023-02-13T01:06:06.438Z,75.32
2023-02-13T01:08:36.783Z,75.21
2023-02-13T01:11:05.474Z,75.06
2023-02-13T01:13:34.025Z,74.83
2023-02-13T01:16:02.618Z,75.23
2023-02-13T01:18:31.226Z,75.25
2023-02-13T01:21:02.680Z,75.71
2023-02-13T01:23:38.486Z,75.44
2023-02-13T01:26:08.966Z,75.50
2023-02-13T01:28:37.288Z,75.59
2023-02-13T01:31:06.710Z,75.64
2023-02-13T01:33:36.077Z,76.32
2023-02-13T01:36:09.074Z,76.13
2023-02-13T01:38:40.647Z,78.38
2023-02-13T01:41:10.513Z,78.69
2023-02-13T01:43:52.598Z,77.90
2023-02-13T01:46:29.135Z,77.21
2023-02-13T01:49:04.098Z,77.21
2023-02-13T01:51:35.296Z,76.88
2023-02-13T01:54:11.753Z,77.85
2023-02-13T01:56:44.611Z,77.56
2023-02-13T01:59:19.093Z,78.02
2023-02-13T02:01:48.922Z,78.13
2023-02-13T02:04:23.954Z,77.54
2023-02-13T02:06:57.302Z,77.07
2023-02-13T02:09:34.979Z,76.71
2023-02-13T02:12:09.757Z,76.38
2023-02-13T02:14:42.017Z,76.07
2023-02-13T02:17:12.807Z,75.69
2023-02-13T02:19:46.242Z,75.34
2023-02-13T02:23:15.882Z,75.21
2023-02-13T02:26:34.423Z,74.88
2023-02-13T02:29:45.544Z,75.65
2023-02-13T02:32:45.579Z,76.66
2023-02-13T02:35:28.514Z,76.96
2023-02-13T02:38:26.629Z,76.84
2023-02-13T02:41:08.279Z,77.59
2023-02-13T02:43:56.870Z,76.76
2023-02-13T02:46:32.827Z,76.67
2023-02-13T02:49:25.792Z,76.64
2023-02-13T02:52:05.203Z,76.27
2023-02-13T02:54:57.843Z,76.03
2023-02-13T02:57:55.743Z,76.01
2023-02-13T03:00:44.772Z,76.47
2023-02-13T03:03:37.079Z,77.88
2023-02-13T03:06:16.091Z,77.36
2023-02-13T03:09:09.630Z,76.96
2023-02-13T03:11:56.456Z,76.80
2023-02-13T03:14:28.457Z,78.14
2023-02-13T03:17:16.865Z,77.42
2023-02-13T03:20:16.918Z,77.15
2023-02-13T03:23:04.032Z,76.91
2023-02-13T03:25:40.930Z,76.60
2023-02-13T03:28:36.444Z,76.25
2023-02-13T03:31:14.507Z,76.65
2023-02-13T03:33:57.759Z,76.34
2023-02-13T03:36:53.963Z,76.73
2023-02-13T03:39:31.224Z,77.09
2023-02-13T03:42:05.301Z,76.71
2023-02-13T03:44:39.143Z,76.47
2023-02-13T03:47:10.242Z,76.77
2023-02-13T03:50:02.001Z,76.52
2023-02-13T03:52:35.219Z,77.25
2023-02-13T03:55:27.971Z,78.19
2023-02-13T03:58:18.761Z,77.98
2023-02-13T04:00:49.548Z,78.11
2023-02-13T04:03:23.226Z,77.95
2023-02-13T04:05:57.530Z,77.73
2023-02-13T04:08:26.017Z,78.40
2023-02-13T04:11:02.419Z,78.14
2023-02-13T04:13:36.234Z,77.79
2023-02-13T04:16:10.948Z,77.88
2023-02-13T04:18:41.043Z,78.12
2023-02-13T04:21:10.020Z,78.41
2023-02-13T04:23:38.457Z,78.88
2023-02-13T04:26:16.197Z,78.76
2023-02-13T04:28:44.842Z,78.66
2023-02-13T04:31:13.623Z,77.97
2023-02-13T04:33:42.254Z,77.82
2023-02-13T04:36:10.872Z,77.91
2023-02-13T04:38:39.188Z,78.46
2023-02-13T04:41:08.916Z,78.97
2023-02-13T04:43:37.379Z,79.21
2023-02-13T04:46:06.257Z,79.98
2023-02-13T04:48:34.703Z,80.02
2023-02-13T04:51:03.322Z,79.61
2023-02-13T04:53:31.610Z,79.31
2023-02-13T04:55:59.918Z,79.62
2023-02-13T04:58:29.661Z,79.75
2023-02-13T05:00:58.293Z,79.73
2023-02-13T05:03:26.959Z,79.31
2023-02-13T05:05:55.266Z,79.55
2023-02-13T05:08:23.672Z,79.82
2023-02-13T05:10:51.940Z,79.31
2023-02-13T05:13:21.721Z,80.29
2023-02-13T05:15:52.588Z,81.06
2023-02-13T05:18:21.139Z,82.09
2023-02-13T05:21:09.668Z,81.89
2023-02-13T05:23:37.424Z,82.03
2023-02-13T05:26:06.031Z,81.44
2023-02-13T05:28:51.930Z,81.19
2023-02-13T05:31:21.817Z,81.19
2023-02-13T05:33:50.247Z,81.06
2023-02-13T05:36:18.586Z,81.14
2023-02-13T05:38:46.901Z,81.27
2023-02-13T05:41:15.299Z,81.91
2023-02-13T05:43:43.781Z,81.66
2023-02-13T05:46:12.303Z,82.01
2023-02-13T05:48:42.054Z,81.59
2023-02-13T05:51:10.399Z,81.92
2023-02-13T05:53:38.805Z,82.76
2023-02-13T05:56:08.193Z,81.77
2023-02-13T05:58:37.632Z,81.36
2023-02-13T06:01:06.187Z,80.88
2023-02-13T06:03:35.210Z,80.70
2023-02-13T06:06:05.309Z,80.96
2023-02-13T06:08:33.690Z,81.17
2023-02-13T06:11:02.325Z,80.79
2023-02-13T06:13:31.039Z,81.16
2023-02-13T06:15:59.596Z,81.30
2023-02-13T06:18:28.174Z,81.20
2023-02-13T06:20:56.776Z,81.43
2023-02-13T06:23:26.798Z,82.12
2023-02-13T06:25:55.143Z,83.04
2023-02-13T06:28:23.728Z,83.06
2023-02-13T06:30:52.180Z,82.82
2023-02-13T06:33:20.614Z,82.51
2023-02-13T06:35:48.960Z,82.40
2023-02-13T06:38:19.071Z,82.05
2023-02-13T06:40:49.780Z,82.68
2023-02-13T06:43:19.048Z,83.33
2023-02-13T06:45:47.962Z,83.88
2023-02-13T06:48:16.440Z,83.42
2023-02-13T06:50:44.699Z,83.70
2023-02-13T06:53:12.999Z,83.74
2023-02-13T06:55:41.482Z,83.75
2023-02-13T06:58:11.180Z,83.63
2023-02-13T07:00:39.506Z,83.73
2023-02-13T07:03:09.952Z,83.65
2023-02-13T07:05:41.809Z,83.16
2023-02-13T07:08:10.735Z,83.90
2023-02-13T07:10:39.648Z,83.49
2023-02-13T07:13:10.392Z,83.48
2023-02-13T07:15:39.331Z,83.11
2023-02-13T07:18:09.417Z,82.58
2023-02-13T07:20:38.038Z,82.44
2023-02-13T07:23:07.967Z,82.13
2023-02-13T07:25:36.687Z,81.73
2023-02-13T07:28:06.712Z,81.82
2023-02-13T07:30:36.920Z,81.29
2023-02-13T07:33:06.403Z,81.10
2023-02-13T07:35:36.188Z,80.94
2023-02-13T07:38:04.950Z,80.76
2023-02-13T07:40:33.305Z,80.56
2023-02-13T07:43:02.917Z,80.69
2023-02-13T07:45:31.337Z,81.10
2023-02-13T07:48:01.122Z,81.69
2023-02-13T07:50:29.911Z,81.41
2023-02-13T07:52:59.861Z,82.07
2023-02-13T07:55:28.771Z,83.34
2023-02-13T07:57:57.651Z,83.04
2023-02-13T08:00:26.379Z,83.34
2023-02-13T08:02:54.823Z,83.96
2023-02-13T08:05:24.524Z,84.74
2023-02-13T08:07:53.885Z,85.58
2023-02-13T08:10:40.013Z,85.75
2023-02-13T08:13:09.976Z,86.02
2023-02-13T08:15:38.441Z,85.75
2023-02-13T08:18:06.876Z,85.24
2023-02-13T08:20:36.650Z,86.75
2023-02-13T08:23:05.671Z,86.53
2023-02-13T08:25:34.211Z,85.70
2023-02-13T08:28:03.043Z,86.75
2023-02-13T08:30:31.862Z,86.24
2023-02-13T08:33:00.157Z,85.74
2023-02-13T08:35:29.872Z,86.16
2023-02-13T08:38:03.908Z,87.14
2023-02-13T08:40:32.672Z,87.71
2023-02-13T08:43:02.465Z,87.58
2023-02-13T08:45:31.596Z,86.87
2023-02-13T08:48:01.276Z,87.96
2023-02-13T08:50:30.077Z,88.37
2023-02-13T08:53:01.013Z,89.48
2023-02-13T08:55:30.983Z,89.36
2023-02-13T08:58:02.474Z,89.78
2023-02-13T09:00:31.554Z,90.21
2023-02-13T09:03:03.266Z,91.14
2023-02-13T09:05:32.653Z,91.70
2023-02-13T09:08:03.846Z,90.93
2023-02-13T09:10:33.508Z,89.80
2023-02-13T09:13:02.274Z,89.73
2023-02-13T09:15:31.049Z,88.63
2023-02-13T09:17:59.529Z,86.68
2023-02-13T09:20:28.280Z,82.91
2023-02-13T09:22:57.880Z,82.86
2023-02-13T09:25:27.760Z,83.10
2023-02-13T09:27:56.248Z,83.31
2023-02-13T09:30:24.821Z,83.79
2023-02-13T09:32:54.446Z,84.83
2023-02-13T09:35:24.057Z,85.63
2023-02-13T09:37:52.426Z,84.60
2023-02-13T09:40:29.655Z,83.99
2023-02-13T09:43:08.996Z,84.88
2023-02-13T09:45:37.921Z,84.55
2023-02-13T09:48:09.278Z,84.98
2023-02-13T09:50:39.390Z,84.99
2023-02-13T09:53:07.777Z,85.13
2023-02-13T09:55:48.222Z,83.87
2023-02-13T09:58:26.397Z,83.52
2023-02-13T10:00:59.346Z,82.20
2023-02-13T10:03:32.700Z,84.05
2023-02-13T10:06:14.943Z,84.09
2023-02-13T10:09:02.326Z,82.50
2023-02-13T10:12:13.700Z,82.40
2023-02-13T10:14:50.451Z,82.87
2023-02-13T10:17:25.616Z,82.94
2023-02-13T10:19:58.723Z,81.75
2023-02-13T10:22:33.696Z,81.47
2023-02-13T10:25:07.660Z,77.83
2023-02-13T10:27:42.178Z,79.24
2023-02-13T10:30:20.327Z,78.83
2023-02-13T10:33:11.251Z,76.05
2023-02-13T10:35:40.326Z,76.00
2023-02-13T10:38:18.365Z,75.64
2023-02-13T10:41:06.658Z,76.98
2023-02-13T10:43:49.280Z,77.01
2023-02-13T10:46:26.885Z,76.09
2023-02-13T10:49:19.155Z,75.90
2023-02-13T10:51:56.700Z,76.14
2023-02-13T10:54:45.174Z,75.44
2023-02-13T10:57:23.366Z,77.40
2023-02-13T11:00:09.226Z,77.60
2023-02-13T11:02:38.744Z,77.80
2023-02-13T11:05:19.580Z,78.94
2023-02-13T11:07:48.492Z,78.57
2023-02-13T11:10:19.592Z,77.99
2023-02-13T11:12:48.984Z,75.70
2023-02-13T11:15:28.295Z,75.39
2023-02-13T11:17:59.757Z,75.46
2023-02-13T11:20:34.881Z,74.88
2023-02-13T11:23:36.002Z,74.10
2023-02-13T11:26:09.206Z,73.01
2023-02-13T11:28:48.526Z,74.21
2023-02-13T11:31:29.019Z,74.62
2023-02-13T11:33:59.103Z,73.77
2023-02-13T11:36:32.808Z,73.04
2023-02-13T11:39:05.070Z,71.54
2023-02-13T11:41:41.410Z,70.79
2023-02-13T11:44:24.227Z,72.04
2023-02-13T11:46:55.729Z,71.69
2023-02-13T11:49:25.921Z,70.21
2023-02-13T11:51:57.068Z,70.28
2023-02-13T11:54:31.770Z,71.04
2023-02-13T11:57:05.197Z,70.72
2023-02-13T11:59:42.675Z,69.25
2023-02-13T12:02:21.200Z,69.22
2023-02-13T12:04:51.715Z,71.03
2023-02-13T12:07:27.035Z,69.64
2023-02-13T12:10:02.883Z,70.10
2023-02-13T12:12:38.915Z,69.49
2023-02-13T12:15:19.659Z,67.95
2023-02-13T12:18:06.715Z,69.10
2023-02-13T12:20:45.360Z,69.43
2023-02-13T12:23:30.461Z,68.85
2023-02-13T12:26:20.624Z,68.73
2023-02-13T12:29:13.930Z,69.57
2023-02-13T12:32:08.581Z,71.58
2023-02-13T12:35:15.135Z,69.85
2023-02-13T12:37:59.459Z,69.01
2023-02-13T12:40:46.932Z,68.63
2023-02-13T12:44:06.443Z,68.95
2023-02-13T12:46:42.752Z,70.04
2023-02-13T12:49:42.906Z,68.83
2023-02-13T12:52:37.979Z,69.48
2023-02-13T12:55:50.432Z,69.20
2023-02-13T12:58:57.282Z,69.98
2023-02-13T13:02:12.713Z,69.00
2023-02-13T13:04:56.472Z,68.16
2023-02-13T13:07:57.318Z,67.85
2023-02-13T13:10:44.576Z,66.68
2023-02-13T13:13:26.246Z,67.51
2023-02-13T13:16:06.200Z,66.39
2023-02-13T13:18:48.562Z,66.12
2023-02-13T13:21:34.713Z,66.43
2023-02-13T13:24:15.209Z,66.37
2023-02-13T13:26:49.613Z,66.18
2023-02-13T13:29:23.810Z,65.62
2023-02-13T13:31:57.249Z,65.88
2023-02-13T13:34:28.017Z,64.69
2023-02-13T13:37:00.660Z,63.66
2023-02-13T13:39:52.534Z,64.12
2023-02-13T13:42:28.364Z,64.61
2023-02-13T13:45:18.426Z,65.75
2023-02-13T13:48:07.293Z,66.49
2023-02-13T13:50:42.102Z,66.58
2023-02-13T13:53:14.762Z,66.05
2023-02-13T13:56:09.412Z,65.08
2023-02-13T13:58:43.817Z,65.58
2023-02-13T14:01:29.225Z,64.56
2023-02-13T14:03:59.941Z,63.86
2023-02-13T14:06:30.543Z,63.75
2023-02-13T14:09:09.720Z,64.32
2023-02-13T14:11:47.224Z,62.82
2023-02-13T14:14:49.440Z,62.90
2023-02-13T14:18:01.334Z,62.52
2023-02-13T14:20:41.398Z,63.04
2023-02-13T14:23:53.208Z,61.91
2023-02-13T14:26:39.494Z,62.22
2023-02-13T14:29:28.601Z,62.63
2023-02-13T14:32:08.537Z,64.39
2023-02-13T14:34:39.373Z,63.12
2023-02-13T14:37:24.474Z,62.35
2023-02-13T14:40:33.552Z,63.87
2023-02-13T14:43:30.899Z,64.17
2023-02-13T14:46:10.232Z,64.43
2023-02-13T14:48:46.210Z,63.71
2023-02-13T14:51:28.809Z,62.40
2023-02-13T14:54:05.071Z,61.48
2023-02-13T14:56:34.446Z,61.18
2023-02-13T14:59:12.686Z,61.34
2023-02-13T15:01:51.856Z,61.94
2023-02-13T15:04:29.264Z,61.15
2023-02-13T15:07:02.310Z,62.14
2023-02-13T15:09:38.800Z,61.65
2023-02-13T15:12:27.525Z,61.50
2023-02-13T15:14:55.961Z,60.97
2023-02-13T15:17:30.167Z,61.37
2023-02-13T15:20:06.334Z,62.47
2023-02-13T15:22:39.154Z,62.34
2023-02-13T15:25:09.910Z,63.44
2023-02-13T15:27:42.596Z,64.34
2023-02-13T15:30:23.830Z,64.81
2023-02-13T15:33:00.036Z,65.25
2023-02-13T15:35:31.532Z,65.07
2023-02-13T15:38:00.568Z,64.77
2023-02-13T15:40:32.204Z,65.05
2023-02-13T15:43:03.237Z,65.74
2023-02-13T15:45:32.028Z,65.38
2023-02-13T15:48:01.726Z,65.35
2023-02-13T15:50:35.182Z,65.58
2023-02-13T15:53:06.934Z,65.55
2023-02-13T15:55:37.153Z,65.79
2023-02-13T15:58:06.040Z,65.62
2023-02-13T16:00:37.949Z,65.26
2023-02-13T16:03:14.481Z,65.14
2023-02-13T16:05:43.252Z,65.65
2023-02-13T16:08:35.955Z,65.32
2023-02-13T16:11:35.718Z,65.30
2023-02-13T16:14:15.970Z,65.17
2023-02-13T16:16:50.077Z,64.86
2023-02-13T16:19:33.961Z,65.03
2023-02-13T16:22:15.715Z,64.88
2023-02-13T16:24:50.574Z,64.42
2023-02-13T16:27:22.494Z,64.32
2023-02-13T16:29:57.636Z,64.31
2023-02-13T16:32:31.379Z,64.36
2023-02-13T16:35:25.334Z,64.50
2023-02-13T16:37:57.609Z,64.58
2023-02-13T16:40:41.947Z,64.88
2023-02-13T16:43:46.198Z,65.90
2023-02-13T16:46:35.829Z,66.69
2023-02-13T16:49:20.703Z,67.64
2023-02-13T16:52:13.045Z,67.18
2023-02-13T16:54:52.467Z,67.06
2023-02-13T16:57:28.068Z,67.18
2023-02-13T17:00:02.030Z,68.01
2023-02-13T17:02:31.380Z,68.48
2023-02-13T17:05:17.304Z,69.23
2023-02-13T17:07:50.257Z,70.12
2023-02-13T17:10:27.180Z,70.13
2023-02-13T17:12:59.629Z,70.48
2023-02-13T17:15:31.546Z,70.80
2023-02-13T17:18:00.492Z,70.51
2023-02-13T17:20:32.020Z,70.25
2023-02-13T17:23:04.546Z,69.79
2023-02-13T17:25:35.387Z,69.28
2023-02-13T17:28:13.165Z,68.57
2023-02-13T17:30:42.163Z,68.46
2023-02-13T17:33:15.175Z,67.91
2023-02-13T17:35:43.635Z,67.20
2023-02-13T17:38:13.433Z,67.03
2023-02-13T17:40:43.111Z,67.34
2023-02-13T17:43:13.384Z,67.97
2023-02-13T17:45:42.080Z,68.52
2023-02-13T17:48:10.662Z,69.17
2023-02-13T17:50:39.898Z,69.83
2023-02-13T17:53:12.705Z,70.49
2023-02-13T17:55:42.402Z,70.93
2023-02-13T17:58:13.863Z,71.45
2023-02-13T18:00:42.262Z,72.22
2023-02-13T18:03:12.880Z,72.71
2023-02-13T18:05:42.493Z,72.91
2023-02-13T18:08:11.229Z,73.18
2023-02-13T18:10:42.238Z,73.31
2023-02-13T18:13:10.582Z,74.29
2023-02-13T18:15:43.093Z,74.71
2023-02-13T18:18:13.289Z,75.04
2023-02-13T18:20:41.770Z,75.09
2023-02-13T18:23:10.347Z,75.58
2023-02-13T18:25:38.751Z,75.84
2023-02-13T18:28:08.438Z,76.05
2023-02-13T18:30:36.705Z,75.85
2023-02-13T18:33:05.226Z,75.59
2023-02-13T18:35:36.820Z,74.69
2023-02-13T18:38:05.213Z,73.94
2023-02-13T18:40:33.680Z,73.34
2023-02-13T18:43:02.100Z,72.87
2023-02-13T18:45:31.997Z,72.57
2023-02-13T18:48:01.523Z,71.87
2023-02-13T18:50:29.919Z,71.23
2023-02-13T18:52:58.280Z,70.72
2023-02-13T18:55:26.570Z,69.99
2023-02-13T18:57:56.366Z,70.20
2023-02-13T19:00:25.771Z,69.68
2023-02-13T19:02:55.669Z,69.89
2023-02-13T19:05:24.325Z,70.30
2023-02-13T19:07:52.949Z,70.90
2023-02-13T19:10:21.457Z,70.22
2023-02-13T19:12:50.122Z,69.22
2023-02-13T19:15:18.480Z,69.44
2023-02-13T19:17:46.930Z,69.37
2023-02-13T19:20:17.120Z,69.85
2023-02-13T19:22:45.570Z,70.23
2023-02-13T19:25:14.023Z,70.58
2023-02-13T19:27:42.386Z,70.84
2023-02-13T19:30:12.572Z,70.33
2023-02-13T19:32:41.500Z,70.91
2023-02-13T19:35:09.930Z,71.11
2023-02-13T19:37:44.051Z,70.85
2023-02-13T19:40:14.850Z,71.02
2023-02-13T19:42:43.368Z,71.60
2023-02-13T19:45:12.467Z,71.69
2023-02-13T19:47:40.836Z,71.16
2023-02-13T19:50:10.800Z,71.01
2023-02-13T19:52:40.617Z,70.63
2023-02-13T19:55:09.600Z,70.13
2023-02-13T19:57:38.140Z,69.90
2023-02-13T20:00:09.503Z,70.89
2023-02-13T20:02:40.904Z,71.56
2023-02-13T20:05:09.665Z,71.36
2023-02-13T20:07:37.904Z,72.10
2023-02-13T20:10:10.739Z,73.00
2023-02-13T20:12:39.496Z,73.35
2023-02-13T20:15:08.622Z,72.49
2023-02-13T20:38:01.602Z,77.05
2023-02-13T20:40:30.127Z,76.59
2023-02-13T20:42:58.464Z,76.25
2023-02-13T20:45:27.163Z,76.86
2023-02-13T20:47:55.532Z,76.68
2023-02-13T20:50:23.922Z,76.89
2023-02-13T20:52:52.384Z,76.24
2023-02-13T20:55:22.097Z,75.71
2023-02-13T20:57:50.416Z,75.03
2023-02-13T21:00:19.445Z,74.07
2023-02-13T21:02:47.812Z,74.14
2023-02-13T21:05:16.508Z,73.91
2023-02-13T21:07:45.004Z,73.27
2023-02-13T21:10:13.391Z,72.90
2023-02-13T21:12:43.434Z,72.65
2023-02-13T21:15:11.986Z,71.93
2023-02-13T21:17:40.254Z,71.64
2023-02-13T21:20:10.030Z,71.34
2023-02-13T21:22:38.538Z,71.12
2023-02-13T21:25:08.000Z,71.46
2023-02-13T21:27:36.320Z,71.66
2023-02-13T21:30:08.130Z,71.79
2023-02-13T21:32:39.369Z,71.63
2023-02-13T21:35:09.317Z,71.95
2023-02-13T21:37:37.686Z,71.68
2023-02-13T21:40:08.201Z,71.58
2023-02-13T21:42:36.594Z,71.60
2023-02-13T21:45:06.694Z,71.95
2023-02-13T21:47:35.385Z,72.00
2023-02-13T21:50:04.036Z,72.38
2023-02-13T21:52:32.404Z,72.46
2023-02-13T21:55:00.705Z,72.64
2023-02-13T21:57:29.006Z,72.50
2023-02-13T21:59:57.348Z,72.39
2023-02-13T22:02:28.121Z,72.23
2023-02-13T22:04:56.481Z,72.35
2023-02-13T22:07:24.812Z,72.41
2023-02-13T22:09:53.182Z,72.45
2023-02-13T22:12:21.541Z,72.37
2023-02-13T22:14:49.892Z,72.92
2023-02-13T22:17:18.314Z,72.97
2023-02-13T22:19:48.016Z,72.94
2023-02-13T22:22:16.395Z,72.71
2023-02-13T22:24:44.927Z,72.61
2023-02-13T22:27:13.249Z,72.48
2023-02-13T22:29:41.542Z,72.56
2023-02-13T22:32:10.033Z,72.60
2023-02-13T22:34:38.431Z,73.11
2023-02-13T22:37:09.419Z,72.92
2023-02-13T22:39:39.886Z,72.79
2023-02-13T22:42:08.338Z,72.84
2023-02-13T22:44:36.594Z,72.55
2023-02-13T22:47:07.216Z,72.56
2023-02-13T22:49:35.957Z,72.79
2023-02-13T22:52:04.423Z,72.68
2023-02-13T22:54:34.197Z,72.35
2023-02-13T22:57:02.500Z,72.55
2023-02-13T22:59:37.329Z,72.62
2023-02-13T23:02:07.174Z,72.69
2023-02-13T23:04:35.698Z,72.78
2023-02-13T23:07:04.012Z,72.81
2023-02-13T23:09:33.717Z,72.81
2023-02-13T23:12:19.494Z,73.12
2023-02-13T23:14:47.884Z,72.87
2023-02-13T23:17:33.684Z,73.15
2023-02-13T23:20:02.173Z,73.41
2023-02-13T23:22:30.728Z,73.37
2023-02-13T23:25:01.558Z,73.06
2023-02-13T23:27:30.225Z,74.07
2023-02-13T23:29:58.582Z,74.83
2023-02-13T23:32:27.109Z,74.93
2023-02-13T23:34:55.699Z,75.22
2023-02-13T23:37:24.079Z,75.57
2023-02-13T23:39:52.465Z,75.52
2023-02-13T23:42:22.206Z,75.82
2023-02-13T23:44:50.554Z,76.12
2023-02-13T23:47:18.930Z,76.18
2023-02-13T23:49:47.381Z,75.92
2023-02-13T23:52:15.692Z,75.90
2023-02-13T23:54:46.061Z,76.13
2023-02-13T23:57:15.076Z,75.84
2023-02-13T23:59:44.922Z,75.45
